Cincinnati, Ohio
Traffic Map
Current Weather Conditions
Cincinnati, Ohio
Scattered Clouds
Scattered Clouds

Feels Like: 8°
Wind Chill: Ceiling: Unl
Heat Index: Visibility: 10mi
Dew Point: Wind: 7mph
Humidity: 83% Direction: ° ()
Pressure: 29.71in Gusts: 0mph
Raw Report DataKLUK 250653Z AUTO VRB06KT 10SM SCT070 SCT085 09/07 A2971 RMK AO2 SLP059 T00940067
Traffic Incident Summary
Active as of:
Severity:
Category:
InformationThere was an issue retrieving the traffic information for this location. Please try a different location or try again shortly.
Advertisements
At Last! Intellicast now available for iPhone and Android